createdAt,value
2019-05-06T00:00:25.456Z,99.90
2019-05-06T00:02:54.604Z,99.90
2019-05-06T00:05:25.399Z,99.90
2019-05-06T00:07:54.365Z,99.90
2019-05-06T00:10:29.501Z,99.90
2019-05-06T00:12:58.336Z,99.90
2019-05-06T00:15:27.276Z,99.90
2019-05-06T00:17:56.049Z,99.90
2019-05-06T00:20:25.052Z,99.90
2019-05-06T00:22:55.475Z,99.90
2019-05-06T00:25:38.131Z,99.90
2019-05-06T00:28:14.695Z,99.90
2019-05-06T00:30:44.968Z,99.90
2019-05-06T00:33:13.644Z,99.90
2019-05-06T00:35:42.244Z,99.90
2019-05-06T00:38:10.923Z,99.90
2019-05-06T00:40:43.700Z,99.90
2019-05-06T00:43:14.054Z,99.90
2019-05-06T00:45:44.302Z,99.90
2019-05-06T00:48:13.945Z,99.90
2019-05-06T00:50:44.123Z,99.90
2019-05-06T00:53:14.366Z,99.90
2019-05-06T00:55:44.589Z,99.90
2019-05-06T00:58:14.239Z,99.90
2019-05-06T01:00:44.303Z,99.90
2019-05-06T01:03:14.086Z,99.90
2019-05-06T01:05:44.408Z,99.90
2019-05-06T01:08:14.170Z,99.90
2019-05-06T01:10:44.845Z,99.90
2019-05-06T01:13:14.946Z,99.90
2019-05-06T01:15:44.101Z,99.90
2019-05-06T01:18:13.778Z,99.90
2019-05-06T01:20:44.548Z,99.90
2019-05-06T01:23:14.381Z,99.90
2019-05-06T01:25:43.835Z,99.90
2019-05-06T01:28:13.801Z,99.90
2019-05-06T01:30:44.344Z,99.90
2019-05-06T01:33:14.619Z,99.90
2019-05-06T01:35:44.349Z,99.90
2019-05-06T01:38:30.078Z,99.90
2019-05-06T01:41:00.403Z,99.90
2019-05-06T01:43:36.635Z,99.90
2019-05-06T01:46:05.231Z,99.90
2019-05-06T01:48:48.633Z,99.90
2019-05-06T01:51:18.815Z,99.90
2019-05-06T01:53:47.791Z,99.90
2019-05-06T01:56:16.496Z,99.90
2019-05-06T01:58:45.964Z,99.90
2019-05-06T02:01:14.938Z,99.90
2019-05-06T02:03:44.253Z,99.90
2019-05-06T02:06:14.169Z,99.90
2019-05-06T02:08:44.718Z,99.90
2019-05-06T02:11:14.849Z,99.90
2019-05-06T02:13:44.248Z,99.90
2019-05-06T02:16:14.646Z,99.90
2019-05-06T02:18:44.857Z,99.90
2019-05-06T02:21:27.668Z,99.90
2019-05-06T02:24:00.388Z,99.90
2019-05-06T02:26:28.990Z,99.90
2019-05-06T02:28:59.209Z,99.90
2019-05-06T02:31:47.762Z,99.90
2019-05-06T02:34:26.438Z,99.90
2019-05-06T02:36:59.547Z,99.90
2019-05-06T02:39:28.168Z,99.90
2019-05-06T02:41:56.794Z,99.90
2019-05-06T02:44:25.344Z,99.90
2019-05-06T02:46:55.527Z,99.90
2019-05-06T02:49:25.783Z,99.90
2019-05-06T02:51:54.331Z,99.90
2019-05-06T02:54:23.637Z,99.90
2019-05-06T02:56:53.138Z,99.90
2019-05-06T02:59:24.034Z,99.90
2019-05-06T03:01:53.805Z,99.90
2019-05-06T03:04:23.664Z,99.90
2019-05-06T03:06:53.201Z,99.90
2019-05-06T03:09:23.351Z,99.90
2019-05-06T03:11:53.999Z,99.90
2019-05-06T03:14:23.370Z,99.90
2019-05-06T03:16:53.675Z,99.90
2019-05-06T03:19:24.078Z,99.90
2019-05-06T03:22:13.341Z,99.90
2019-05-06T03:24:43.767Z,99.90
2019-05-06T03:27:14.351Z,99.90
2019-05-06T03:29:44.429Z,99.90
2019-05-06T03:32:16.488Z,99.90
2019-05-06T03:35:00.372Z,99.90
2019-05-06T03:37:16.919Z,99.90
2019-05-06T03:39:43.709Z,99.90
2019-05-06T03:42:13.714Z,99.90
2019-05-06T03:44:44.165Z,99.90
2019-05-06T03:47:14.348Z,99.90
2019-05-06T03:49:54.412Z,99.90
2019-05-06T03:52:23.227Z,99.90
2019-05-06T03:54:53.580Z,99.90
2019-05-06T03:57:24.092Z,99.90
2019-05-06T03:59:53.339Z,99.90
2019-05-06T04:02:24.137Z,99.90
2019-05-06T04:04:55.934Z,99.90
2019-05-06T04:07:23.437Z,99.90
2019-05-06T04:09:53.556Z,99.90
2019-05-06T04:12:24.696Z,99.90
2019-05-06T04:14:54.226Z,99.90
2019-05-06T04:17:28.404Z,99.90
2019-05-06T04:20:04.058Z,99.90
2019-05-06T04:22:52.901Z,99.90
2019-05-06T04:25:43.730Z,99.90
2019-05-06T04:28:14.351Z,99.90
2019-05-06T04:30:43.235Z,99.90
2019-05-06T04:33:16.493Z,99.90
2019-05-06T04:35:43.019Z,99.90
2019-05-06T04:38:13.858Z,99.90
2019-05-06T04:40:44.021Z,99.90
2019-05-06T04:43:13.566Z,99.90
2019-05-06T04:45:43.218Z,99.90
2019-05-06T04:48:14.231Z,99.90
2019-05-06T04:50:44.370Z,99.90
2019-05-06T04:53:13.877Z,99.90
2019-05-06T04:55:43.579Z,99.90
2019-05-06T04:58:13.388Z,99.90
2019-05-06T05:00:44.604Z,99.90
2019-05-06T05:03:14.054Z,99.90
2019-05-06T05:05:44.887Z,99.90
2019-05-06T05:08:13.763Z,99.90
2019-05-06T05:10:44.803Z,99.90
2019-05-06T05:13:18.284Z,99.90
2019-05-06T05:16:05.076Z,99.90
2019-05-06T05:18:35.325Z,99.90
2019-05-06T05:21:03.991Z,99.90
2019-05-06T05:23:32.703Z,99.90
2019-05-06T05:26:02.896Z,99.90
2019-05-06T05:28:32.177Z,99.90
2019-05-06T05:31:02.878Z,99.90
2019-05-06T05:33:32.771Z,99.90
2019-05-06T05:36:02.086Z,99.90
2019-05-06T05:38:32.026Z,99.90
2019-05-06T05:41:02.964Z,99.90
2019-05-06T05:43:39.623Z,99.90
2019-05-06T05:46:08.536Z,99.90
2019-05-06T05:48:53.862Z,99.90
2019-05-06T05:51:22.495Z,99.90
2019-05-06T05:53:52.277Z,99.90
2019-05-06T05:56:23.822Z,99.90
2019-05-06T05:58:53.558Z,99.90
2019-05-06T06:01:24.439Z,99.90
2019-05-06T06:03:53.064Z,99.90
2019-05-06T06:06:22.180Z,99.90
2019-05-06T06:08:52.324Z,99.90
2019-05-06T06:11:26.451Z,99.90
2019-05-06T06:13:56.786Z,99.90
2019-05-06T06:16:33.048Z,99.90
2019-05-06T06:19:19.286Z,99.90
2019-05-06T06:21:49.605Z,99.90
2019-05-06T06:24:25.824Z,99.90
2019-05-06T06:26:54.432Z,99.90
2019-05-06T06:29:23.127Z,99.90
2019-05-06T06:31:53.439Z,99.90
2019-05-06T06:34:29.485Z,99.90
2019-05-06T06:37:17.704Z,99.90
2019-05-06T06:39:48.379Z,99.90
2019-05-06T06:42:16.987Z,99.90
2019-05-06T06:44:45.774Z,99.90
2019-05-06T06:47:14.465Z,99.90
2019-05-06T06:49:43.142Z,99.90
2019-05-06T06:52:14.734Z,99.90
2019-05-06T06:54:43.853Z,99.90
2019-05-06T06:57:22.860Z,99.90
2019-05-06T06:59:56.442Z,99.90
2019-05-06T07:02:27.009Z,99.90
2019-05-06T07:05:06.260Z,99.90
2019-05-06T07:07:44.003Z,99.90
2019-05-06T07:10:08.798Z,99.90
2019-05-06T07:12:37.327Z,99.90
2019-05-06T07:15:07.023Z,99.90
2019-05-06T07:17:35.577Z,99.90
2019-05-06T07:20:07.185Z,99.90
2019-05-06T07:22:38.528Z,99.90
2019-05-06T07:25:10.146Z,99.90
2019-05-06T07:27:38.821Z,99.90
2019-05-06T07:30:08.287Z,99.90
2019-05-06T07:32:36.829Z,99.90
2019-05-06T07:35:06.363Z,99.90
2019-05-06T07:37:35.127Z,99.90
2019-05-06T07:40:05.047Z,99.90
2019-05-06T07:42:37.276Z,99.90
2019-05-06T07:45:09.405Z,99.90
2019-05-06T07:47:48.934Z,99.90
2019-05-06T07:50:17.602Z,99.90
2019-05-06T07:53:04.335Z,99.90
2019-05-06T07:55:32.882Z,99.90
2019-05-06T07:58:02.893Z,99.90
2019-05-06T08:00:32.749Z,99.90
2019-05-06T08:03:02.502Z,99.90
2019-05-06T08:05:32.436Z,99.90
2019-05-06T08:08:03.466Z,99.90
2019-05-06T08:10:33.250Z,99.90
2019-05-06T08:13:02.785Z,99.90
2019-05-06T08:15:32.499Z,99.90
2019-05-06T08:18:03.474Z,99.90
2019-05-06T08:20:38.064Z,99.90
2019-05-06T08:23:09.686Z,99.90
2019-05-06T08:25:42.332Z,99.90
2019-05-06T08:28:10.216Z,99.90
2019-05-06T08:30:38.944Z,99.90
2019-05-06T08:33:07.716Z,99.90
2019-05-06T08:35:36.268Z,99.90
2019-05-06T08:38:04.885Z,99.90
2019-05-06T08:40:33.424Z,99.90
2019-05-06T08:43:02.327Z,99.90
2019-05-06T08:45:32.499Z,99.90
2019-05-06T08:48:02.967Z,99.90
2019-05-06T08:50:39.090Z,99.90
2019-05-06T08:53:09.381Z,99.90
2019-05-06T08:55:47.633Z,99.90
2019-05-06T08:58:16.304Z,99.90
2019-05-06T09:00:46.576Z,99.90
2019-05-06T09:03:15.176Z,99.90
2019-05-06T09:05:45.434Z,99.90
2019-05-06T09:08:14.002Z,99.90
2019-05-06T09:10:42.914Z,99.90
2019-05-06T09:13:12.318Z,99.90
2019-05-06T09:15:42.771Z,99.90
2019-05-06T09:18:12.418Z,99.90
2019-05-06T09:20:43.124Z,99.90
2019-05-06T09:23:12.439Z,99.90
2019-05-06T09:25:42.449Z,99.90
2019-05-06T09:28:13.243Z,99.90
2019-05-06T09:30:43.472Z,99.90
2019-05-06T09:33:12.955Z,99.90
2019-05-06T09:35:42.246Z,99.90
2019-05-06T09:38:12.761Z,99.90
2019-05-06T09:40:43.252Z,99.90
2019-05-06T09:43:13.166Z,99.90
2019-05-06T09:45:42.536Z,99.90
2019-05-06T09:48:22.420Z,99.90
2019-05-06T09:50:53.538Z,99.90
2019-05-06T09:53:23.219Z,99.90
2019-05-06T09:55:53.647Z,99.90
2019-05-06T09:58:22.877Z,99.90
2019-05-06T10:00:53.237Z,99.90
2019-05-06T10:03:22.615Z,99.90
2019-05-06T10:05:53.080Z,99.90
2019-05-06T10:08:22.753Z,99.90
2019-05-06T10:10:56.852Z,99.90
2019-05-06T10:13:21.866Z,99.90
2019-05-06T10:15:52.068Z,99.90
2019-05-06T10:18:22.624Z,99.90
2019-05-06T10:20:51.091Z,99.90
2019-05-06T10:23:19.657Z,99.90
2019-05-06T10:25:48.183Z,99.90
2019-05-06T10:28:23.294Z,99.90
2019-05-06T10:30:51.989Z,99.90
2019-05-06T10:33:24.714Z,99.90
2019-05-06T10:35:53.404Z,99.90
2019-05-06T10:38:50.393Z,99.90
2019-05-06T10:41:27.527Z,99.90
2019-05-06T10:44:04.644Z,99.90
2019-05-06T10:46:33.177Z,99.90
2019-05-06T10:49:02.602Z,99.90
2019-05-06T10:51:42.761Z,99.90
2019-05-06T10:54:12.268Z,99.90
2019-05-06T10:56:50.797Z,99.90
2019-05-06T10:59:14.596Z,99.90
2019-05-06T11:01:47.899Z,99.90
2019-05-06T11:04:16.508Z,99.90
2019-05-06T11:06:45.204Z,99.90
2019-05-06T11:09:13.883Z,99.90
2019-05-06T11:11:42.881Z,99.90
2019-05-06T11:14:12.643Z,99.90
2019-05-06T11:16:41.759Z,99.90
2019-05-06T11:19:10.300Z,99.90
2019-05-06T11:21:38.915Z,99.90
2019-05-06T11:24:07.606Z,99.90
2019-05-06T11:26:36.226Z,99.90
2019-05-06T11:29:06.621Z,99.90
2019-05-06T11:31:36.802Z,99.90
2019-05-06T11:34:09.925Z,99.90
2019-05-06T11:36:40.150Z,99.90
2019-05-06T11:39:09.114Z,99.90
2019-05-06T11:41:37.678Z,99.90
2019-05-06T11:44:09.006Z,99.90
2019-05-06T11:46:36.485Z,99.20
2019-05-06T11:49:05.185Z,99.90
2019-05-06T11:51:34.009Z,99.90
2019-05-06T11:54:07.578Z,99.90
2019-05-06T11:56:47.534Z,99.90
2019-05-06T11:59:03.364Z,99.90
2019-05-06T12:01:39.944Z,99.90
2019-05-06T12:04:08.482Z,99.90
2019-05-06T12:06:37.348Z,99.50
2019-05-06T12:09:10.294Z,99.70
2019-05-06T12:11:39.572Z,99.90
2019-05-06T12:14:08.197Z,99.70
2019-05-06T12:16:36.829Z,99.90
2019-05-06T12:19:05.517Z,99.90
2019-05-06T12:21:34.048Z,99.90
2019-05-06T12:24:03.054Z,99.90
2019-05-06T12:26:32.258Z,99.90
2019-05-06T12:29:02.165Z,99.90
2019-05-06T12:31:32.795Z,99.90
2019-05-06T12:34:02.691Z,99.90
2019-05-06T12:36:32.573Z,99.90
2019-05-06T12:39:17.372Z,99.90
2019-05-06T12:42:03.566Z,99.90
2019-05-06T12:44:33.748Z,99.90
2019-05-06T12:47:04.021Z,99.90
2019-05-06T12:49:32.764Z,99.90
2019-05-06T12:52:01.366Z,99.90
2019-05-06T12:54:30.064Z,99.90
2019-05-06T12:56:59.760Z,99.90
2019-05-06T12:59:28.435Z,99.50
2019-05-06T13:01:57.179Z,99.30
2019-05-06T13:04:45.969Z,99.50
2019-05-06T13:06:56.055Z,99.90
2019-05-06T13:09:24.629Z,99.50
2019-05-06T13:11:53.234Z,99.90
2019-05-06T13:14:22.358Z,99.90
2019-05-06T13:16:53.243Z,99.90
2019-05-06T13:19:22.784Z,99.90
2019-05-06T13:21:51.735Z,99.50
2019-05-06T13:24:20.274Z,99.90
2019-05-06T13:26:48.830Z,99.90
2019-05-06T13:29:19.085Z,99.90
2019-05-06T13:31:47.715Z,99.90
2019-05-06T13:34:17.629Z,99.90
2019-05-06T13:36:46.959Z,96.70
2019-05-06T13:39:15.690Z,97.50
2019-05-06T13:41:44.332Z,98.50
2019-05-06T13:44:14.576Z,98.20
2019-05-06T13:46:44.904Z,98.80
2019-05-06T13:49:17.914Z,98.40
2019-05-06T13:51:54.128Z,97.70
2019-05-06T13:54:22.840Z,97.20
2019-05-06T13:56:52.166Z,97.20
2019-05-06T13:59:20.883Z,96.80
2019-05-06T14:01:52.678Z,97.90
2019-05-06T14:04:24.102Z,98.30
2019-05-06T14:06:52.843Z,99.30
2019-05-06T14:09:31.414Z,98.20
2019-05-06T14:11:52.527Z,97.50
2019-05-06T14:14:22.678Z,96.40
2019-05-06T14:16:53.302Z,96.40
2019-05-06T14:19:22.494Z,96.50
2019-05-06T14:21:52.270Z,96.10
2019-05-06T14:24:22.165Z,96.70
2019-05-06T14:26:58.540Z,97.50
2019-05-06T14:29:32.798Z,96.90
2019-05-06T14:32:00.964Z,97.30
2019-05-06T14:34:29.499Z,97.60
2019-05-06T14:36:58.141Z,98.70
2019-05-06T14:39:47.360Z,99.20
2019-05-06T14:41:58.634Z,99.50
2019-05-06T14:44:27.260Z,99.80
2019-05-06T14:47:03.545Z,99.90
2019-05-06T14:49:32.691Z,99.90
2019-05-06T14:52:02.683Z,99.90
2019-05-06T14:54:33.047Z,99.90
2019-05-06T14:57:03.388Z,99.70
2019-05-06T14:59:32.962Z,99.80
2019-05-06T15:02:02.634Z,99.50
2019-05-06T15:04:32.443Z,99.00
2019-05-06T15:07:02.112Z,98.90
2019-05-06T15:09:32.949Z,98.70
2019-05-06T15:12:02.377Z,99.10
2019-05-06T15:14:33.115Z,98.60
2019-05-06T15:17:02.210Z,98.10
2019-05-06T15:19:31.044Z,99.90
2019-05-06T15:21:59.568Z,99.90
2019-05-06T15:24:28.198Z,98.90
2019-05-06T15:26:56.881Z,99.50
2019-05-06T15:29:25.420Z,99.90
2019-05-06T15:32:02.627Z,99.50
2019-05-06T15:34:44.727Z,99.70
2019-05-06T15:37:14.887Z,99.90
2019-05-06T15:39:43.860Z,99.90
2019-05-06T15:42:12.907Z,99.20
2019-05-06T15:44:42.491Z,99.40
2019-05-06T15:47:13.237Z,99.80
2019-05-06T15:49:41.999Z,99.20
2019-05-06T15:52:12.454Z,97.90
2019-05-06T15:54:43.071Z,99.40
2019-05-06T15:57:11.772Z,99.90
2019-05-06T15:59:42.130Z,99.90
2019-05-06T16:02:10.668Z,99.40
2019-05-06T16:04:39.199Z,99.00
2019-05-06T16:07:07.840Z,98.50
2019-05-06T16:09:36.380Z,98.20
2019-05-06T16:12:05.072Z,98.10
2019-05-06T16:14:34.877Z,98.90
2019-05-06T16:17:03.964Z,98.80
2019-05-06T16:19:33.630Z,98.10
2019-05-06T16:22:04.093Z,98.10
2019-05-06T16:24:53.064Z,98.20
2019-05-06T16:27:22.996Z,98.80
2019-05-06T16:29:52.993Z,99.00
2019-05-06T16:32:22.039Z,98.80
2019-05-06T16:34:52.450Z,98.20
2019-05-06T16:37:22.259Z,98.40
2019-05-06T16:39:54.141Z,97.80
2019-05-06T16:42:22.491Z,97.30
2019-05-06T16:44:52.741Z,97.00
2019-05-06T16:47:37.635Z,97.20
2019-05-06T16:50:09.063Z,97.70
2019-05-06T16:52:37.839Z,97.30
2019-05-06T16:55:10.315Z,97.60
2019-05-06T16:57:39.123Z,97.60
2019-05-06T17:00:09.703Z,97.50
2019-05-06T17:02:56.883Z,99.10
2019-05-06T17:05:22.428Z,98.00
2019-05-06T17:07:52.992Z,98.10
2019-05-06T17:10:22.780Z,98.60
2019-05-06T17:12:53.415Z,98.90
2019-05-06T17:15:22.999Z,99.10
2019-05-06T17:17:53.125Z,99.40
2019-05-06T17:20:22.745Z,99.00
2019-05-06T17:22:53.236Z,98.90
2019-05-06T17:25:22.430Z,98.70
2019-05-06T17:27:52.668Z,98.50
2019-05-06T17:30:33.170Z,98.20
2019-05-06T17:33:18.339Z,98.10
2019-05-06T17:35:46.968Z,98.40
2019-05-06T17:38:17.155Z,98.50
2019-05-06T17:40:45.833Z,99.20
2019-05-06T17:43:14.391Z,99.40
2019-05-06T17:45:57.929Z,99.50
2019-05-06T17:48:28.426Z,99.00
2019-05-06T17:51:10.476Z,99.90
2019-05-06T17:53:47.635Z,99.70
2019-05-06T17:56:16.317Z,99.40
2019-05-06T17:58:45.114Z,99.40
2019-05-06T18:01:15.429Z,99.70
2019-05-06T18:03:44.052Z,99.60
2019-05-06T18:06:14.213Z,99.90
2019-05-06T18:08:43.370Z,99.90
2019-05-06T18:11:12.926Z,99.90
2019-05-06T18:13:41.639Z,99.90
2019-05-06T18:16:10.112Z,99.90
2019-05-06T18:18:38.687Z,99.90
2019-05-06T18:21:07.375Z,99.90
2019-05-06T18:23:36.003Z,99.90
2019-05-06T18:26:04.608Z,99.90
2019-05-06T18:28:33.245Z,99.90
2019-05-06T18:31:03.117Z,99.90
2019-05-06T18:33:32.759Z,99.90
2019-05-06T18:36:02.586Z,99.90
2019-05-06T18:38:33.465Z,99.90
2019-05-06T18:41:02.053Z,99.90
2019-05-06T18:43:33.145Z,99.90
2019-05-06T18:46:02.810Z,99.90
2019-05-06T18:48:34.521Z,99.90
2019-05-06T18:51:03.012Z,99.90
2019-05-06T18:53:33.161Z,99.90
2019-05-06T18:56:03.109Z,99.90
2019-05-06T18:58:32.683Z,99.90
2019-05-06T19:01:03.788Z,99.90
2019-05-06T19:03:33.276Z,99.90
2019-05-06T19:06:02.340Z,99.90
2019-05-06T19:08:33.296Z,99.90
2019-05-06T19:11:02.453Z,99.90
2019-05-06T19:13:33.359Z,99.90
2019-05-06T19:16:02.119Z,99.90
2019-05-06T19:18:31.120Z,99.90
2019-05-06T19:20:59.773Z,99.90
2019-05-06T19:23:28.300Z,99.90
2019-05-06T19:25:56.932Z,99.90
2019-05-06T19:28:25.471Z,99.90
2019-05-06T19:30:54.325Z,99.90
2019-05-06T19:33:23.113Z,99.90
2019-05-06T19:35:52.285Z,99.90
2019-05-06T19:38:22.340Z,99.90
2019-05-06T19:40:52.379Z,99.90
2019-05-06T19:43:21.986Z,99.90
2019-05-06T19:45:52.959Z,99.90
2019-05-06T19:48:22.178Z,99.90
2019-05-06T19:50:52.231Z,99.90
2019-05-06T19:53:21.035Z,99.90
2019-05-06T19:55:49.634Z,99.90
2019-05-06T19:58:18.256Z,99.90
2019-05-06T20:00:47.270Z,99.90
2019-05-06T20:03:16.662Z,99.90
2019-05-06T20:05:49.588Z,99.90
2019-05-06T20:08:19.795Z,99.90
2019-05-06T20:11:08.023Z,99.90
2019-05-06T20:13:37.691Z,99.90
2019-05-06T20:16:06.296Z,99.90
2019-05-06T20:18:34.851Z,99.90
2019-05-06T20:21:03.461Z,99.90
2019-05-06T20:23:32.780Z,99.90
2019-05-06T20:26:03.409Z,99.90
2019-05-06T20:28:32.284Z,99.90
2019-05-06T20:31:02.487Z,99.90
2019-05-06T20:33:32.675Z,99.90
2019-05-06T20:36:01.428Z,99.90
2019-05-06T20:38:30.082Z,99.90
2019-05-06T20:40:58.640Z,99.90
2019-05-06T20:43:27.166Z,99.90
2019-05-06T20:45:56.391Z,99.90
2019-05-06T20:48:24.992Z,99.90
2019-05-06T20:50:53.531Z,99.90
2019-05-06T20:53:23.166Z,99.90
2019-05-06T20:55:53.209Z,99.90
2019-05-06T20:58:22.968Z,99.90
2019-05-06T21:00:52.203Z,99.90
2019-05-06T21:03:22.191Z,99.90
2019-05-06T21:05:50.979Z,99.90
2019-05-06T21:08:19.528Z,99.90
2019-05-06T21:10:49.890Z,99.90
2019-05-06T21:13:29.633Z,99.90
2019-05-06T21:15:48.457Z,99.90
2019-05-06T21:18:17.012Z,99.90
2019-05-06T21:20:45.563Z,99.90
2019-05-06T21:23:14.083Z,99.90
2019-05-06T21:25:43.179Z,99.90
2019-05-06T21:28:12.211Z,99.90
2019-05-06T21:30:42.845Z,99.90
2019-05-06T21:33:12.440Z,99.90
2019-05-06T21:35:42.322Z,99.90
2019-05-06T21:38:12.176Z,99.90
2019-05-06T21:40:43.135Z,99.90
2019-05-06T21:43:13.049Z,99.90
2019-05-06T21:45:42.360Z,99.90
2019-05-06T21:48:13.422Z,99.90
2019-05-06T21:50:42.662Z,99.90
2019-05-06T21:53:14.262Z,99.90
2019-05-06T21:55:41.615Z,99.90
2019-05-06T21:58:12.263Z,99.90
2019-05-06T22:00:48.213Z,99.90
2019-05-06T22:03:16.895Z,99.90
2019-05-06T22:05:45.489Z,99.90
2019-05-06T22:08:14.183Z,99.90
2019-05-06T22:10:42.780Z,99.90
2019-05-06T22:13:14.099Z,99.90
2019-05-06T22:15:42.194Z,99.90
2019-05-06T22:18:12.437Z,99.90
2019-05-06T22:20:59.254Z,99.90
2019-05-06T22:23:29.475Z,99.90
2019-05-06T22:26:10.780Z,99.90
2019-05-06T22:28:28.182Z,99.90
2019-05-06T22:30:56.716Z,99.90
2019-05-06T22:33:25.335Z,99.90
2019-05-06T22:35:54.969Z,99.90
2019-05-06T22:38:23.632Z,99.90
2019-05-06T22:40:52.954Z,99.90
2019-05-06T22:43:22.001Z,99.90
2019-05-06T22:45:50.719Z,99.90
2019-05-06T22:48:19.289Z,99.90
2019-05-06T22:50:47.823Z,99.90
2019-05-06T22:53:16.383Z,99.90
2019-05-06T22:55:44.993Z,99.90
2019-05-06T22:58:13.555Z,99.90
2019-05-06T23:00:46.519Z,99.90
2019-05-06T23:03:19.568Z,99.90
2019-05-06T23:05:48.106Z,99.90
2019-05-06T23:08:16.646Z,99.90
2019-05-06T23:10:46.101Z,99.90
2019-05-06T23:13:14.550Z,99.90
2019-05-06T23:15:43.110Z,99.90
2019-05-06T23:18:11.711Z,99.90
2019-05-06T23:20:40.335Z,99.90
2019-05-06T23:23:08.873Z,99.90
2019-05-06T23:25:37.501Z,99.90
2019-05-06T23:28:06.095Z,99.90
2019-05-06T23:30:34.688Z,99.90
2019-05-06T23:33:03.323Z,99.90
2019-05-06T23:35:31.991Z,99.90
2019-05-06T23:38:37.085Z,99.90
2019-05-06T23:41:42.370Z,99.90
2019-05-06T23:44:47.607Z,99.90
2019-05-06T23:47:53.204Z,99.90
2019-05-06T23:50:58.228Z,99.90
2019-05-06T23:54:03.251Z,99.90
2019-05-06T23:56:42.879Z,99.90
2019-05-06T23:59:13.017Z,99.90
